• Join FlightAware (Why Join?)
  • Login
  • US Flag 
05:26AM EDT


 

Airport Tracker/Info


-or-


 

Live Flight TrackerFlight Track Log ✈ N479PF ✈ 16-Jan-2014 ✈ KTEB - KBCT

Flight Track Log - Related Links

Times and Time Zones

All times are in EST time to prevent confusion due to time zone crossing. See the N479PF flight status page for this flight to view local times or setup timezone preferences in your user account.

Time Position Orientation Groundspeed Altitude Reporting Facility
EST Latitude Longitude Course Direction KTS MPH feet Rate Location/Type
05:52PM 40.9000 -74.0500 227° Southwest 176 203 2,600  Level New York TRACON
05:53PM 40.9000 -74.1333 270° West 255 293 4,800 1,560 Climbing New York TRACON
05:54PM 40.8333 -74.1333 180° South 251 289 5,800 900 Climbing New York TRACON
05:55PM 40.7667 -74.1667 201° Southwest 253 291 6,600 2,160 Climbing New York TRACON
05:56PM 40.7000 -74.1833 191° South 248 285 10,200 3,240 Climbing New York TRACON
05:56PM 40.6333 -74.1833 180° South 306 352 12,800 2,520 Climbing New York TRACON
05:57PM 40.2975 -74.3379 227° Southwest  Level Estimated
05:57PM 40.5333 -74.1667 173° South 371 427 15,000  Level New York TRACON
05:59PM 40.3508 -74.1653 180° South 394 453 18,400 1,920 Climbing Washington Center
06:00PM 40.2597 -74.2242 206° Southwest 360 414 20,200 1,920 Climbing Washington Center
06:01PM 40.1733 -74.3072 216° Southwest 360 414 22,300 1,920 Climbing Washington Center
06:02PM 40.0844 -74.3903 216° Southwest 383 441 24,000 840 Climbing Washington Center
06:03PM 39.9958 -74.4731 216° Southwest 395 455 24,000 240 Level Washington Center
06:04PM 39.9111 -74.5528 216° Southwest 395 455 24,500 1,380 Climbing Washington Center
06:05PM 39.8408 -74.6161 215° Southwest 395 455 26,800 2,520 Climbing Washington Center
06:06PM 39.7456 -74.7064 216° Southwest 395 455 29,700 2,880 Climbing Washington Center
06:07PM 39.6544 -74.7911 216° Southwest 385 443 32,700 1,980 Climbing Washington Center
06:08PM 39.5800 -74.8564 214° Southwest 373 429 33,700 1,380 Climbing Washington Center
06:09PM 39.5033 -74.9300 217° Southwest 366 421 35,500 1,680 Climbing Washington Center
06:10PM 39.4267 -75.0006 215° Southwest 353 406 37,200 1,440 Climbing Washington Center
06:11PM 39.3478 -75.0708 215° Southwest 353 406 38,400 1,020 Climbing Washington Center
06:12PM 39.2583 -75.1333 208° Southwest 353 406 39,300 780 Climbing Washington Center
06:13PM 39.1647 -75.1739 199° South 358 412 40,000 300 Climbing Washington Center
06:14PM 39.0689 -75.2147 198° South 364 419 40,000  Level Washington Center
06:15PM 38.9711 -75.2525 197° South 364 419 40,000  Level Washington Center
06:16PM 38.8775 -75.2931 199° South 364 419 40,000  Level Washington Center
06:17PM 38.7794 -75.3333 198° South 364 419 40,000  Level Washington Center
06:18PM 38.6836 -75.3683 196° South 364 419 40,000  Level Washington Center
06:19PM 38.5919 -75.4111 200° South 364 419 40,000  Level Washington Center
06:20PM 38.5003 -75.4511 199° South 364 419 40,000  Level Washington Center
06:21PM 38.4067 -75.4858 196° South 364 419 40,000  Level Washington Center
06:22PM 38.3233 -75.5414 208° Southwest 351 404 40,000  Level Washington Center
06:23PM 38.2397 -75.5997 209° Southwest 351 404 40,000  Level Washington Center
06:24PM 38.1586 -75.6550 208° Southwest 346 398 40,000  Level Washington Center
06:25PM 38.0772 -75.7158 210° Southwest 341 392 40,000  Level Washington Center
06:26PM 37.9958 -75.7736 209° Southwest 341 392 40,000  Level Washington Center
06:27PM 37.9100 -75.8314 208° Southwest 341 392 40,000  Level Washington Center
06:28PM 37.8267 -75.8914 210° Southwest 341 392 40,000  Level Washington Center
06:29PM 37.7450 -75.9517 210° Southwest 346 398 40,000  Level Washington Center
06:30PM 37.6594 -76.0117 209° Southwest 352 405 40,000  Level Washington Center
06:31PM 37.5736 -76.0714 209° Southwest 357 411 40,000  Level Washington Center
06:32PM 37.4900 -76.1311 210° Southwest 357 411 40,000  Level Washington Center
06:33PM 37.4022 -76.1881 207° Southwest 357 411 40,000  Level Washington Center
06:34PM 37.3161 -76.2500 210° Southwest 357 411 40,000  Level Washington Center
06:35PM 37.2303 -76.3067 208° Southwest 357 411 40,000  Level Washington Center
06:36PM 37.1444 -76.3658 209° Southwest 357 411 40,000  Level Washington Center
06:37PM 37.0606 -76.4272 210° Southwest 357 411 40,000  Level Washington Center
06:38PM 36.9747 -76.4861 209° Southwest 357 411 40,000  Level Washington Center
06:39PM 36.8889 -76.5425 208° Southwest 357 411 40,000  Level Washington Center
06:40PM 36.8028 -76.6036 210° Southwest 357 411 40,000  Level Washington Center
06:41PM 36.7167 -76.6619 209° Southwest 357 411 40,000  Level Washington Center
06:42PM 36.6200 -76.7281 209° Southwest 357 411 40,000  Level Washington Center
06:43PM 36.5339 -76.7861 208° Southwest 357 411 40,000  Level Washington Center
06:44PM 36.4542 -76.8392 208° Southwest 357 411 40,000  Level Washington Center
06:45PM 36.3575 -76.9047 209° Southwest 357 411 40,000  Level Washington Center
06:46PM 36.2692 -76.9653 209° Southwest 357 411 40,000  Level Washington Center
06:47PM 36.1808 -77.0228 208° Southwest 352 405 40,000  Level Washington Center
06:48PM 36.0925 -77.0828 209° Southwest 358 412 40,000  Level Washington Center
06:49PM 36.0231 -77.1278 208° Southwest 358 412 40,000  Level Washington Center
06:50PM 35.9283 -77.1925 209° Southwest 358 412 40,000  Level Washington Center
06:51PM 35.8442 -77.2500 209° Southwest 358 412 40,000  Level Washington Center
06:52PM 35.7578 -77.3069 208° Southwest 358 412 40,000  Level Washington Center
06:53PM 35.6694 -77.3639 208° Southwest 358 412 40,000  Level Washington Center
06:54PM 35.5808 -77.4206 207° Southwest 358 412 40,000  Level Washington Center
06:55PM 35.4944 -77.4772 208° Southwest 358 412 40,000  Level Washington Center
06:56PM 35.4058 -77.5364 209° Southwest 358 412 40,000  Level Washington Center
06:57PM 35.3253 -77.6058 215° Southwest 358 412 40,000  Level Washington Center
06:58PM 35.2511 -77.6853 221° Southwest 358 412 40,000  Level Washington Center
06:59PM 35.1725 -77.7619 219° Southwest 364 419 40,000  Level Washington Center
07:00PM 35.0981 -77.8411 221° Southwest 364 419 40,000  Level Washington Center
07:01PM 35.0214 -77.9203 220° Southwest 364 419 40,000  Level Washington Center
07:02PM 34.9447 -77.9992 220° Southwest 364 419 40,000  Level Washington Center
07:04PM 34.7883 -78.1581 220° Southwest 367 422 40,000  Level Jacksonville Center
07:05PM 34.7122 -78.2406 222° Southwest 367 422 40,000  Level Jacksonville Center
07:06PM 34.6358 -78.3203 221° Southwest 367 422 40,000  Level Jacksonville Center
07:07PM 34.5575 -78.3978 219° Southwest 367 422 40,000  Level Jacksonville Center
07:08PM 34.4767 -78.4775 219° Southwest 367 422 40,000  Level Jacksonville Center
07:09PM 34.4003 -78.5567 221° Southwest 367 422 40,000  Level Jacksonville Center
07:10PM 34.3236 -78.6336 220° Southwest 367 422 40,000  Level Jacksonville Center
07:11PM 34.2450 -78.7128 220° Southwest 367 422 40,000  Level Jacksonville Center
07:13PM 34.0872 -78.8683 219° Southwest 367 422 40,000  Level Jacksonville Center
07:14PM 34.0083 -78.9444 219° Southwest 367 422 40,000  Level Jacksonville Center
07:15PM 33.9314 -79.0231 220° Southwest 367 422 40,000  Level Jacksonville Center
07:16PM 33.8525 -79.1014 220° Southwest 367 422 40,000  Level Jacksonville Center
07:17PM 33.7733 -79.1800 220° Southwest 367 422 40,000  Level Jacksonville Center
07:18PM 33.7003 -79.2503 219° Southwest 367 422 40,000  Level Jacksonville Center
07:19PM 33.6214 -79.3308 220° Southwest 361 415 40,000  Level Jacksonville Center
07:20PM 33.5422 -79.4089 219° Southwest 366 421 40,000  Level Jacksonville Center
07:21PM 33.4628 -79.4867 219° Southwest 371 427 40,000  Level Jacksonville Center
07:22PM 33.3836 -79.5644 219° Southwest 371 427 40,000  Level Jacksonville Center
07:23PM 33.3019 -79.6369 217° Southwest 371 427 40,000  Level Jacksonville Center
07:24PM 33.2161 -79.7047 213° Southwest 371 427 40,000  Level Jacksonville Center
07:25PM 33.1219 -79.7800 214° Southwest 371 427 40,000  Level Jacksonville Center
07:26PM 33.0358 -79.8447 212° Southwest 371 427 40,000  Level Jacksonville Center
07:27PM 32.9497 -79.9147 214° Southwest 371 427 40,000  Level Jacksonville Center
07:28PM 32.8636 -79.9817 213° Southwest 371 427 40,000  Level Jacksonville Center
07:29PM 32.7756 -80.0514 214° Southwest 371 427 40,000  Level Jacksonville Center
07:30PM 32.6894 -80.1206 214° Southwest 371 427 40,000  Level Jacksonville Center
07:31PM 32.6033 -80.1900 214° Southwest 371 427 40,000  Level Jacksonville Center
07:32PM 32.5150 -80.2589 213° Southwest 371 427 40,000  Level Jacksonville Center
07:33PM 32.4267 -80.3281 213° Southwest 376 433 40,000  Level Jacksonville Center
07:34PM 32.3403 -80.3969 214° Southwest 376 433 40,000  Level Jacksonville Center
07:35PM 32.2411 -80.4486 204° Southwest 381 438 40,000  Level Jacksonville Center
07:36PM 32.1417 -80.4906 200° South 388 447 40,000  Level Jacksonville Center
07:37PM 32.0425 -80.5397 203° Southwest 388 447 40,000  Level Jacksonville Center
07:38PM 31.9408 -80.5839 200° South 393 452 40,000  Level Jacksonville Center
07:39PM 31.8497 -80.6228 200° South 388 447 40,000  Level Jacksonville Center
07:40PM 31.7400 -80.6744 202° Southwest 388 447 40,000  Level Jacksonville Center
07:41PM 31.6364 -80.7183 200° South 393 452 40,000  Level Jacksonville Center
07:42PM 31.5328 -80.7647 201° Southwest 393 452 40,000  Level Jacksonville Center
07:43PM 31.4333 -80.8083 201° Southwest 393 452 40,000  Level Jacksonville Center
07:44PM 31.3317 -80.8494 199° South 393 452 40,000  Level Jacksonville Center
07:45PM 31.2322 -80.8956 202° Southwest 393 452 40,000  Level Jacksonville Center
07:46PM 31.1306 -80.9414 201° Southwest 388 447 40,000  Level Jacksonville Center
07:47PM 31.0289 -80.9844 200° South 388 447 40,000  Level Jacksonville Center
07:48PM 30.9250 -81.0206 197° South 393 452 40,000  Level Jacksonville Center
07:49PM 30.8103 -81.0253 182° South 398 458 40,000  Level Jacksonville Center
07:50PM 30.7019 -81.0322 183° South 403 464 40,000  Level Jacksonville Center
07:51PM 30.6017 -81.0367 182° South 403 464 40,000  Level Jacksonville Center
07:52PM 30.4892 -81.0436 183° South 403 464 40,000  Level Jacksonville Center
07:53PM 30.3739 -81.0194 170° South 408 470 40,000  Level Jacksonville Center
07:54PM 30.2586 -80.9928 169° South 413 475 40,000  Level Jacksonville Center
07:55PM 30.1456 -80.9686 170° South 413 475 40,000  Level Jacksonville Center
07:56PM 30.0303 -80.9469 171° South 413 475 40,000  Level Jacksonville Center
07:57PM 29.9131 -80.9228 170° South 418 481 40,000 -300 Level Jacksonville Center
07:58PM 29.8000 -80.8989 170° South 418 481 39,400 -600 Descending Jacksonville Center
07:59PM 29.6847 -80.8772 171° South 418 481 38,800 -660 Descending Jacksonville Center
08:01PM 29.5033 -80.8375 169° South 420 483 37,800 -660 Descending Miami Center
08:02PM 29.3725 -80.8183 173° South 425 489 37,200 -660 Descending Miami Center
08:03PM 29.2522 -80.7925 169° South 431 496 36,500 -600 Descending Miami Center
08:04PM 29.1319 -80.7669 169° South 437 503 36,000 -300 Descending Miami Center
08:05PM 29.0158 -80.7439 170° South 437 503 36,000  Level Miami Center
08:06PM 28.8978 -80.7183 169° South 437 503 36,000  Level Miami Center
08:07PM 28.7814 -80.6978 171° South 437 503 36,000  Level Miami Center
08:08PM 28.6719 -80.6583 162° South 442 509 36,000 -900 Level Miami Center
08:09PM 28.5506 -80.5881 153° Southeast 453 521 34,200 -2,100 Descending Miami Center
08:10PM 28.4389 -80.5467 162° South 436 502 31,800 -2,400 Descending Miami Center
08:11PM 28.3233 -80.5050 162° South 436 502 29,400 -2,460 Descending Miami Center
08:12PM 28.2117 -80.4639 162° South 455 524 26,900 -2,520 Descending Miami Center
08:13PM 28.0875 -80.4175 162° South 466 536 24,400 -2,760 Descending Miami Center
08:14PM 27.9592 -80.3711 162° South 447 514 21,400 -2,700 Descending Miami Center
08:15PM 27.8392 -80.3275 162° South 447 514 19,000 -2,400 Descending Miami Center
08:16PM 27.7275 -80.2842 161° South 437 503 16,700 -2,400 Descending Miami Center
08:17PM 27.6281 -80.2508 163° South 418 481 14,300 -2,280 Descending Miami Center
08:18PM 27.5225 -80.2103 161° South 411 473 12,200 -1,980 Descending Miami Center
08:19PM 27.4108 -80.1719 163° South 393 452 10,400 -1,140 Descending Miami Center
08:20PM 27.3092 -80.1386 164° South 388 447 10,000 -240 Descending Miami Center
08:21PM 27.2031 -80.1239 173° South 382 440 10,000  Level Miami Center
08:22PM 27.1072 -80.1094 172° South 388 447 10,000  Level Miami Center
08:23PM 27.0008 -80.1019 176° South 383 441 10,000 -180 Level Miami Center
08:24PM 26.8986 -80.0967 177° South 354 407 9,700 -900 Descending Miami Center
08:25PM 26.8194 -80.0922 177° South 305 351 8,300 -1,500 Descending Miami Center
08:26PM 26.7381 -80.0900 179° South 296 341 6,800 -1,560 Descending Miami Center
08:27PM 26.6669 -80.0903 180° South 269 310 5,200 -1,620 Descending Miami Center
08:27PM 26.6419 -80.0942 188° South 256 295 4,700 -1,440 Descending Miami Center
08:28PM 26.5917 -80.1000 186° South 269 310 3,800 -1,440 Descending Miami Center
08:28PM 26.5433 -80.1078 188° South 279 321 2,800 -1,080 Descending Miami Center
08:29PM 26.4722 -80.1197 189° South 233 268 2,000 -420 Descending Miami Center
08:30PM 26.4197 -80.1300 190° South 205 236 2,000 -300 Level Miami Center
08:31PM 26.3792 -80.1683 220° Southwest 184 212 1,500 -600 Descending Miami Center
08:32PM 26.3483 -80.1489 151° Southeast 167 192 900 -600 Descending Miami Center
08:34PM 26.3667 -80.1000 42° Northeast  Level FlightAware Approximate
08:41PM 26.3785 -80.1077 42° Northeast  Level Estimated
08:42PM 26.3785 -80.1077 42° Northeast  Level Estimated